Oelwein, IA

4:09 PM CST on December 11, 2019 (GMT -0600)
Oelwein Municipal

Weather History for KOLZ - June, 2019

Change the Weather History Date:

Friday, June 14, 2019

  Actual Average Record
Temperature  
Mean Temperature 64 °F -  
Max Temperature 75 °F 79 °F 97 °F (1987)
Min Temperature 53 °F 59 °F 44 °F (1955)
Degree Days  
Heating Degree Days 1    
Growing Degree Days 14 (Base 50)    
Moisture  
Dew Point 53 °F    
Average Humidity 64    
Maximum Humidity 78    
Minimum Humidity 38    
Precipitation  
Precipitation 0.00 in - - ()
Sea Level Pressure  
Sea Level Pressure 29.86 in    
Wind  
Wind Speed 13 mph ()    
Max Wind Speed 29 mph    
Max Gust Speed 39 mph    
Visibility 10.0 miles    
Events      
Averages and records for this station are not official NWS values.
T = Trace of Precipitation, MM = Missing Value Source: Averaged Metar Reports

Daily Weather History Graph

Daily Weather History Graph

Search for Another Location

Airport or City:

Astronomy

Jun. 14, 2019 Rise Set
Actual Time 5:29 AM CDT 8:47 PM CDT
Civil Twilight 4:54 AM CDT 9:22 PM CDT
Nautical Twilight 4:09 AM CDT 10:07 PM CDT
Astronomical Twilight 3:13 AM CDT 11:03 PM CDT
Moon 6:05 PM CDT (6/14) 3:52 AM CDT (6/14)
Length of Visible Light 16h 27m
Length of Day
15h 17m
Waxing Gibbous, 92% of the Moon is Illuminated
Jun 14
Waxing Gibbous
Jun 17
Full
Jun 25
Last Quarter
Jul 2
New
Jul 9
First Quarter

Hourly Weather History & Observations

Time (CDT) Temp. Dew Point Humidity Pressure Visibility Wind Dir Wind Speed Gust Speed Precip Events Conditions
12:15 AM 55.4 °F 44.6 °F 67% 29.99 in 10.0 mi SSE 9.2 mph - N/A   Clear
12:35 AM 55.4 °F 44.6 °F 67% 29.99 in 10.0 mi SSE 10.4 mph - N/A   Partly Cloudy
12:55 AM 55.4 °F 44.6 °F 67% 29.98 in 10.0 mi SSE 10.4 mph - N/A   Partly Cloudy
1:15 AM 55.4 °F 44.6 °F 67% 29.98 in 10.0 mi SSE 9.2 mph - N/A   Clear
1:35 AM 55.4 °F 44.6 °F 67% 29.98 in 10.0 mi SSE 8.1 mph - N/A   Scattered Clouds
1:55 AM 55.4 °F 44.6 °F 67% 29.97 in 10.0 mi SSE 9.2 mph - N/A   Mostly Cloudy
2:15 AM 55.4 °F 44.6 °F 67% 29.97 in 10.0 mi SSE 8.1 mph - N/A   Partly Cloudy
2:35 AM 53.6 °F 46.4 °F 77% 29.96 in 10.0 mi SSE 8.1 mph - N/A   Mostly Cloudy
2:55 AM 55.4 °F 46.4 °F 72% 29.96 in 10.0 mi South 8.1 mph - N/A   Mostly Cloudy
3:15 AM 55.4 °F 46.4 °F 72% 29.95 in 10.0 mi South 9.2 mph - N/A   Overcast
3:35 AM 57.2 °F 48.2 °F 72% 29.95 in 10.0 mi South 10.4 mph - N/A   Overcast
3:55 AM 59.0 °F 48.2 °F 67% 29.95 in 10.0 mi South 11.5 mph - N/A   Overcast
4:15 AM 59.0 °F 48.2 °F 67% 29.94 in 10.0 mi South 12.7 mph - N/A   Overcast
4:35 AM 57.2 °F 48.2 °F 72% 29.93 in 10.0 mi South 11.5 mph - N/A   Mostly Cloudy
4:55 AM 57.2 °F 48.2 °F 72% 29.92 in 10.0 mi South 11.5 mph - N/A   Partly Cloudy
5:15 AM 57.2 °F 48.2 °F 72% 29.92 in 10.0 mi South 12.7 mph - N/A   Clear
5:35 AM 57.2 °F 48.2 °F 72% 29.91 in 10.0 mi South 13.8 mph - N/A   Clear
5:55 AM 57.2 °F 50.0 °F 77% 29.91 in 10.0 mi South 12.7 mph - N/A   Clear
6:15 AM 59.0 °F 50.0 °F 72% 29.91 in 10.0 mi South 13.8 mph - N/A   Clear
6:35 AM 59.0 °F 50.0 °F 72% 29.91 in 10.0 mi South 12.7 mph - N/A   Clear
6:55 AM 60.8 °F 51.8 °F 72% 29.91 in 10.0 mi SSW 13.8 mph - N/A   Clear
7:15 AM 62.6 °F 51.8 °F 68% 29.91 in 10.0 mi SSW 16.1 mph 21.9 mph N/A   Clear
7:35 AM 62.6 °F 51.8 °F 68% 29.91 in 10.0 mi SSW 17.3 mph - N/A   Partly Cloudy
7:55 AM 64.4 °F 51.8 °F 64% 29.92 in 10.0 mi SSW 12.7 mph 24.2 mph N/A   Partly Cloudy
8:15 AM 64.4 °F 53.6 °F 68% 29.91 in 10.0 mi SSW 17.3 mph - N/A   Scattered Clouds
8:35 AM 68.0 °F 53.6 °F 60% 29.91 in 10.0 mi SW 19.6 mph 25.3 mph N/A   Scattered Clouds
8:55 AM 68.0 °F 53.6 °F 60% 29.90 in 10.0 mi SW 19.6 mph 27.6 mph N/A   Scattered Clouds
9:15 AM 68.0 °F 53.6 °F 60% 29.90 in 10.0 mi SW 21.9 mph 31.1 mph N/A   Mostly Cloudy
9:35 AM 68.0 °F 53.6 °F 60% 29.89 in 10.0 mi SSW 20.7 mph 27.6 mph N/A   Overcast
9:55 AM 68.0 °F 51.8 °F 56% 29.89 in 10.0 mi SSW 20.7 mph - N/A   Mostly Cloudy
10:15 AM 69.8 °F 51.8 °F 53% 29.88 in 9.0 mi SSW 17.3 mph 27.6 mph N/A   Mostly Cloudy
10:35 AM 68.0 °F 53.6 °F 60% 29.87 in 10.0 mi SSW 19.6 mph 26.5 mph N/A   Overcast
10:55 AM 68.0 °F 53.6 °F 60% 29.87 in 10.0 mi SSW 16.1 mph 23.0 mph N/A   Overcast
11:15 AM 69.8 °F 53.6 °F 56% 29.87 in 10.0 mi SSW 21.9 mph - N/A   Mostly Cloudy
11:35 AM 73.4 °F 53.6 °F 50% 29.86 in 10.0 mi SW 20.7 mph 32.2 mph N/A   Partly Cloudy
11:55 AM - - N/A% - - North - - N/A   Unknown
12:15 PM 75.2 °F 51.8 °F 44% 29.84 in 10.0 mi SW 26.5 mph 36.8 mph N/A   Unknown
12:35 PM 75.2 °F 48.2 °F 38% 29.83 in 10.0 mi SW 28.8 mph 39.1 mph N/A   Clear
12:55 PM 75.2 °F 50.0 °F 41% 29.83 in 10.0 mi SW 25.3 mph 35.7 mph N/A   Clear
1:15 PM 75.2 °F 50.0 °F 41% 29.82 in 10.0 mi SW 28.8 mph - N/A   Clear
1:35 PM 73.4 °F 51.8 °F 47% 29.82 in 10.0 mi SW 26.5 mph 34.5 mph N/A   Partly Cloudy
1:55 PM 71.6 °F 53.6 °F 53% 29.81 in 10.0 mi SW 25.3 mph 32.2 mph N/A   Partly Cloudy
2:15 PM 69.8 °F 57.2 °F 64% 29.81 in 10.0 mi SW 20.7 mph - N/A   Mostly Cloudy
2:35 PM 69.8 °F 57.2 °F 64% 29.80 in 10.0 mi SSW 19.6 mph 28.8 mph N/A   Scattered Clouds
2:55 PM 68.0 °F 59.0 °F 73% 29.79 in 10.0 mi SSW 19.6 mph 27.6 mph N/A   Clear
3:15 PM 68.0 °F 57.2 °F 68% 29.79 in 10.0 mi SSW 20.7 mph - N/A   Clear
3:35 PM 68.0 °F 57.2 °F 68% 29.79 in 10.0 mi SSW 19.6 mph - N/A   Mostly Cloudy
3:55 PM 68.0 °F 59.0 °F 73% 29.78 in 10.0 mi SSW 17.3 mph - N/A   Mostly Cloudy
4:15 PM 69.8 °F 59.0 °F 68% 29.77 in 10.0 mi SSW 17.3 mph - N/A   Scattered Clouds
4:35 PM 71.6 °F 57.2 °F 60% 29.76 in 10.0 mi SSW 19.6 mph - N/A   Partly Cloudy
4:55 PM 71.6 °F 57.2 °F 60% 29.76 in 10.0 mi South 17.3 mph 23.0 mph N/A   Scattered Clouds
5:15 PM 73.4 °F 57.2 °F 57% 29.76 in 10.0 mi South 21.9 mph 28.8 mph N/A   Mostly Cloudy
5:35 PM 71.6 °F 57.2 °F 60% 29.77 in 10.0 mi SSW 20.7 mph 26.5 mph N/A   Overcast
5:55 PM 71.6 °F 59.0 °F 64% 29.77 in 10.0 mi SSW 19.6 mph 27.6 mph N/A   Overcast
6:15 PM 69.8 °F 57.2 °F 64% 29.76 in 10.0 mi SSW 18.4 mph 25.3 mph N/A   Overcast
6:35 PM 69.8 °F 57.2 °F 64% 29.76 in 10.0 mi South 19.6 mph - N/A   Overcast
6:55 PM 69.8 °F 57.2 °F 64% 29.76 in 10.0 mi South 15.0 mph 24.2 mph N/A   Overcast
7:15 PM 71.6 °F 59.0 °F 64% 29.75 in 10.0 mi SSW 18.4 mph 27.6 mph N/A   Overcast
7:35 PM 69.8 °F 59.0 °F 68% 29.75 in 10.0 mi SSW 19.6 mph - N/A   Overcast
7:55 PM 69.8 °F 59.0 °F 68% 29.75 in 10.0 mi SSW 15.0 mph 20.7 mph N/A   Overcast
8:15 PM 69.8 °F 59.0 °F 68% 29.75 in 10.0 mi South 13.8 mph - N/A   Overcast
8:35 PM 68.0 °F 59.0 °F 73% 29.76 in 10.0 mi South 11.5 mph - N/A   Overcast
8:55 PM 68.0 °F 59.0 °F 73% 29.76 in 10.0 mi South 13.8 mph - N/A   Overcast
9:15 PM 68.0 °F 59.0 °F 73% 29.76 in 10.0 mi South 15.0 mph - N/A   Overcast
9:35 PM 66.2 °F 59.0 °F 78% 29.76 in 10.0 mi South 11.5 mph 18.4 mph N/A   Overcast